sensor_id;sensor_type;location;lat;lon;timestamp;P1;durP1;ratioP1;P2;durP2;ratioP2
2476;SDS011;1249;51.270;6.756;2023-04-29T00:01:34;17.63;;;12.13;;
2476;SDS011;1249;51.270;6.756;2023-04-29T00:04:00;20.07;;;13.47;;
2476;SDS011;1249;51.270;6.756;2023-04-29T00:06:25;18.53;;;13.60;;
2476;SDS011;1249;51.270;6.756;2023-04-29T00:08:52;21.27;;;15.23;;
2476;SDS011;1249;51.270;6.756;2023-04-29T00:11:17;20.77;;;15.00;;
2476;SDS011;1249;51.270;6.756;2023-04-29T00:13:43;20.33;;;14.40;;
2476;SDS011;1249;51.270;6.756;2023-04-29T00:16:08;21.00;;;15.40;;
2476;SDS011;1249;51.270;6.756;2023-04-29T00:18:34;22.03;;;17.00;;
2476;SDS011;1249;51.270;6.756;2023-04-29T00:21:01;21.97;;;16.80;;
2476;SDS011;1249;51.270;6.756;2023-04-29T00:23:29;24.03;;;16.07;;
2476;SDS011;1249;51.270;6.756;2023-04-29T00:25:56;28.63;;;18.93;;
2476;SDS011;1249;51.270;6.756;2023-04-29T00:28:21;28.50;;;18.10;;
2476;SDS011;1249;51.270;6.756;2023-04-29T00:30:47;25.80;;;19.00;;
2476;SDS011;1249;51.270;6.756;2023-04-29T00:33:12;28.40;;;19.60;;
2476;SDS011;1249;51.270;6.756;2023-04-29T00:35:38;29.03;;;19.30;;
2476;SDS011;1249;51.270;6.756;2023-04-29T00:38:03;32.37;;;21.03;;
2476;SDS011;1249;51.270;6.756;2023-04-29T00:40:29;30.80;;;22.20;;
2476;SDS011;1249;51.270;6.756;2023-04-29T00:42:55;31.43;;;21.70;;
2476;SDS011;1249;51.270;6.756;2023-04-29T00:45:21;37.73;;;25.00;;
2476;SDS011;1249;51.270;6.756;2023-04-29T00:47:47;29.87;;;22.17;;
2476;SDS011;1249;51.270;6.756;2023-04-29T00:50:13;34.90;;;24.17;;
2476;SDS011;1249;51.270;6.756;2023-04-29T00:52:39;37.30;;;24.50;;
2476;SDS011;1249;51.270;6.756;2023-04-29T00:55:06;38.20;;;24.80;;
2476;SDS011;1249;51.270;6.756;2023-04-29T00:57:33;34.90;;;23.43;;
2476;SDS011;1249;51.270;6.756;2023-04-29T00:59:58;39.27;;;25.00;;
2476;SDS011;1249;51.270;6.756;2023-04-29T01:02:25;39.23;;;25.23;;
2476;SDS011;1249;51.270;6.756;2023-04-29T01:04:52;41.17;;;24.73;;
2476;SDS011;1249;51.270;6.756;2023-04-29T01:07:20;36.57;;;24.60;;
2476;SDS011;1249;51.270;6.756;2023-04-29T01:10:11;37.03;;;24.23;;
2476;SDS011;1249;51.270;6.756;2023-04-29T01:12:45;39.53;;;24.10;;
2476;SDS011;1249;51.270;6.756;2023-04-29T01:17:50;37.63;;;23.80;;
2476;SDS011;1249;51.270;6.756;2023-04-29T01:20:23;36.50;;;23.67;;
2476;SDS011;1249;51.270;6.756;2023-04-29T01:22:51;41.03;;;25.60;;
2476;SDS011;1249;51.270;6.756;2023-04-29T01:25:16;38.07;;;24.73;;
2476;SDS011;1249;51.270;6.756;2023-04-29T01:30:55;42.77;;;25.33;;
2476;SDS011;1249;51.270;6.756;2023-04-29T01:33:42;37.33;;;24.63;;
2476;SDS011;1249;51.270;6.756;2023-04-29T01:39:02;38.20;;;23.20;;
2476;SDS011;1249;51.270;6.756;2023-04-29T01:41:34;40.00;;;25.00;;
2476;SDS011;1249;51.270;6.756;2023-04-29T01:44:07;42.90;;;25.90;;
2476;SDS011;1249;51.270;6.756;2023-04-29T01:46:38;44.40;;;28.20;;
2476;SDS011;1249;51.270;6.756;2023-04-29T01:49:06;48.87;;;27.47;;
2476;SDS011;1249;51.270;6.756;2023-04-29T01:51:31;40.50;;;24.90;;
2476;SDS011;1249;51.270;6.756;2023-04-29T01:53:58;47.97;;;26.20;;
2476;SDS011;1249;51.270;6.756;2023-04-29T01:56:24;40.17;;;27.00;;
2476;SDS011;1249;51.270;6.756;2023-04-29T01:58:49;43.47;;;24.50;;
2476;SDS011;1249;51.270;6.756;2023-04-29T02:01:15;41.60;;;26.37;;
2476;SDS011;1249;51.270;6.756;2023-04-29T02:03:40;47.13;;;26.10;;
2476;SDS011;1249;51.270;6.756;2023-04-29T02:06:06;41.73;;;25.93;;
2476;SDS011;1249;51.270;6.756;2023-04-29T02:08:32;44.63;;;26.50;;
2476;SDS011;1249;51.270;6.756;2023-04-29T02:10:57;44.33;;;25.50;;
2476;SDS011;1249;51.270;6.756;2023-04-29T02:13:24;41.73;;;23.30;;
2476;SDS011;1249;51.270;6.756;2023-04-29T02:15:50;45.43;;;23.83;;
2476;SDS011;1249;51.270;6.756;2023-04-29T02:18:15;43.63;;;23.57;;
2476;SDS011;1249;51.270;6.756;2023-04-29T02:20:41;45.90;;;23.93;;
2476;SDS011;1249;51.270;6.756;2023-04-29T02:23:06;38.77;;;23.60;;
2476;SDS011;1249;51.270;6.756;2023-04-29T02:25:32;37.03;;;23.70;;
2476;SDS011;1249;51.270;6.756;2023-04-29T02:27:58;37.80;;;23.13;;
2476;SDS011;1249;51.270;6.756;2023-04-29T02:30:24;37.37;;;20.70;;
2476;SDS011;1249;51.270;6.756;2023-04-29T02:32:49;37.80;;;21.33;;
2476;SDS011;1249;51.270;6.756;2023-04-29T02:35:15;36.10;;;21.90;;
2476;SDS011;1249;51.270;6.756;2023-04-29T02:37:40;40.20;;;23.50;;
2476;SDS011;1249;51.270;6.756;2023-04-29T02:40:06;44.90;;;23.13;;
2476;SDS011;1249;51.270;6.756;2023-04-29T02:42:32;36.90;;;21.33;;
2476;SDS011;1249;51.270;6.756;2023-04-29T02:44:58;34.40;;;20.63;;
2476;SDS011;1249;51.270;6.756;2023-04-29T02:47:23;33.03;;;21.93;;
2476;SDS011;1249;51.270;6.756;2023-04-29T02:49:49;34.13;;;22.60;;
2476;SDS011;1249;51.270;6.756;2023-04-29T02:52:14;34.40;;;19.47;;
2476;SDS011;1249;51.270;6.756;2023-04-29T02:54:41;39.63;;;20.23;;
2476;SDS011;1249;51.270;6.756;2023-04-29T02:57:07;37.43;;;21.07;;
2476;SDS011;1249;51.270;6.756;2023-04-29T02:59:32;35.77;;;21.47;;
2476;SDS011;1249;51.270;6.756;2023-04-29T03:01:58;40.37;;;22.50;;
2476;SDS011;1249;51.270;6.756;2023-04-29T03:04:25;36.40;;;21.17;;
2476;SDS011;1249;51.270;6.756;2023-04-29T03:06:53;40.50;;;22.93;;
2476;SDS011;1249;51.270;6.756;2023-04-29T03:09:20;38.40;;;22.40;;
2476;SDS011;1249;51.270;6.756;2023-04-29T03:11:46;42.80;;;23.50;;
2476;SDS011;1249;51.270;6.756;2023-04-29T03:14:11;39.67;;;22.77;;
2476;SDS011;1249;51.270;6.756;2023-04-29T03:16:37;41.90;;;23.30;;
2476;SDS011;1249;51.270;6.756;2023-04-29T03:19:02;48.50;;;23.23;;
2476;SDS011;1249;51.270;6.756;2023-04-29T03:21:28;45.03;;;26.20;;
2476;SDS011;1249;51.270;6.756;2023-04-29T03:23:56;39.70;;;23.60;;
2476;SDS011;1249;51.270;6.756;2023-04-29T03:26:22;30.67;;;21.53;;
2476;SDS011;1249;51.270;6.756;2023-04-29T03:28:49;36.73;;;22.40;;
2476;SDS011;1249;51.270;6.756;2023-04-29T03:31:14;35.43;;;22.43;;
2476;SDS011;1249;51.270;6.756;2023-04-29T03:33:41;34.77;;;21.00;;
2476;SDS011;1249;51.270;6.756;2023-04-29T03:36:06;37.60;;;20.97;;
2476;SDS011;1249;51.270;6.756;2023-04-29T03:38:32;33.40;;;21.17;;
2476;SDS011;1249;51.270;6.756;2023-04-29T03:40:58;35.10;;;23.07;;
2476;SDS011;1249;51.270;6.756;2023-04-29T03:43:24;34.87;;;22.73;;
2476;SDS011;1249;51.270;6.756;2023-04-29T03:45:50;35.77;;;21.87;;
2476;SDS011;1249;51.270;6.756;2023-04-29T03:48:16;42.50;;;22.40;;
2476;SDS011;1249;51.270;6.756;2023-04-29T03:50:41;35.53;;;21.80;;
2476;SDS011;1249;51.270;6.756;2023-04-29T03:53:07;34.70;;;21.80;;
2476;SDS011;1249;51.270;6.756;2023-04-29T03:55:33;37.10;;;20.77;;
2476;SDS011;1249;51.270;6.756;2023-04-29T03:57:58;33.87;;;21.43;;
2476;SDS011;1249;51.270;6.756;2023-04-29T04:00:24;30.37;;;18.57;;
2476;SDS011;1249;51.270;6.756;2023-04-29T04:02:50;31.47;;;19.90;;
2476;SDS011;1249;51.270;6.756;2023-04-29T04:05:16;30.53;;;19.23;;
2476;SDS011;1249;51.270;6.756;2023-04-29T04:07:44;29.07;;;17.07;;
2476;SDS011;1249;51.270;6.756;2023-04-29T04:10:10;28.13;;;17.23;;
2476;SDS011;1249;51.270;6.756;2023-04-29T04:12:36;28.30;;;18.80;;
2476;SDS011;1249;51.270;6.756;2023-04-29T04:15:01;32.63;;;21.03;;
2476;SDS011;1249;51.270;6.756;2023-04-29T04:17:28;26.43;;;16.43;;
2476;SDS011;1249;51.270;6.756;2023-04-29T04:19:54;29.60;;;18.20;;
2476;SDS011;1249;51.270;6.756;2023-04-29T04:22:19;29.00;;;15.93;;
2476;SDS011;1249;51.270;6.756;2023-04-29T04:24:45;28.23;;;17.63;;
2476;SDS011;1249;51.270;6.756;2023-04-29T04:27:11;27.43;;;17.43;;
2476;SDS011;1249;51.270;6.756;2023-04-29T04:29:37;25.10;;;16.47;;
2476;SDS011;1249;51.270;6.756;2023-04-29T04:32:06;25.80;;;16.63;;
2476;SDS011;1249;51.270;6.756;2023-04-29T04:34:31;22.80;;;15.73;;
2476;SDS011;1249;51.270;6.756;2023-04-29T04:36:57;23.27;;;14.90;;
2476;SDS011;1249;51.270;6.756;2023-04-29T04:39:22;24.50;;;15.80;;
2476;SDS011;1249;51.270;6.756;2023-04-29T04:41:48;24.03;;;15.07;;
2476;SDS011;1249;51.270;6.756;2023-04-29T04:44:13;22.43;;;15.40;;
2476;SDS011;1249;51.270;6.756;2023-04-29T04:46:40;23.57;;;16.30;;
2476;SDS011;1249;51.270;6.756;2023-04-29T04:49:06;23.57;;;15.53;;
2476;SDS011;1249;51.270;6.756;2023-04-29T04:51:32;24.67;;;15.20;;
2476;SDS011;1249;51.270;6.756;2023-04-29T04:53:57;24.00;;;15.87;;
2476;SDS011;1249;51.270;6.756;2023-04-29T04:56:23;21.23;;;15.30;;
2476;SDS011;1249;51.270;6.756;2023-04-29T04:58:48;21.57;;;16.13;;
2476;SDS011;1249;51.270;6.756;2023-04-29T05:01:14;22.40;;;14.97;;
2476;SDS011;1249;51.270;6.756;2023-04-29T05:03:39;23.93;;;16.07;;
2476;SDS011;1249;51.270;6.756;2023-04-29T05:06:05;20.83;;;14.77;;
2476;SDS011;1249;51.270;6.756;2023-04-29T05:08:30;21.27;;;13.93;;
2476;SDS011;1249;51.270;6.756;2023-04-29T05:10:56;18.57;;;13.30;;
2476;SDS011;1249;51.270;6.756;2023-04-29T05:13:22;20.00;;;14.17;;
2476;SDS011;1249;51.270;6.756;2023-04-29T05:15:49;17.93;;;12.20;;
2476;SDS011;1249;51.270;6.756;2023-04-29T05:18:15;15.57;;;12.10;;
2476;SDS011;1249;51.270;6.756;2023-04-29T05:20:41;20.33;;;13.43;;
2476;SDS011;1249;51.270;6.756;2023-04-29T05:23:06;18.77;;;13.90;;
2476;SDS011;1249;51.270;6.756;2023-04-29T05:25:32;19.50;;;13.17;;
2476;SDS011;1249;51.270;6.756;2023-04-29T05:27:58;18.37;;;13.17;;
2476;SDS011;1249;51.270;6.756;2023-04-29T05:30:24;19.93;;;13.97;;
2476;SDS011;1249;51.270;6.756;2023-04-29T05:32:49;19.37;;;13.90;;
2476;SDS011;1249;51.270;6.756;2023-04-29T05:35:15;17.87;;;12.30;;
2476;SDS011;1249;51.270;6.756;2023-04-29T05:37:42;21.20;;;13.23;;
2476;SDS011;1249;51.270;6.756;2023-04-29T05:40:08;18.30;;;13.23;;
2476;SDS011;1249;51.270;6.756;2023-04-29T05:42:34;17.90;;;13.07;;
2476;SDS011;1249;51.270;6.756;2023-04-29T05:45:00;19.00;;;13.53;;
2476;SDS011;1249;51.270;6.756;2023-04-29T05:47:25;15.97;;;11.23;;
2476;SDS011;1249;51.270;6.756;2023-04-29T05:49:51;17.40;;;11.93;;
2476;SDS011;1249;51.270;6.756;2023-04-29T05:52:16;19.63;;;13.60;;
2476;SDS011;1249;51.270;6.756;2023-04-29T05:54:42;20.83;;;14.27;;
2476;SDS011;1249;51.270;6.756;2023-04-29T05:57:08;17.67;;;12.87;;
2476;SDS011;1249;51.270;6.756;2023-04-29T05:59:33;18.47;;;12.40;;
2476;SDS011;1249;51.270;6.756;2023-04-29T06:01:59;17.90;;;13.37;;
2476;SDS011;1249;51.270;6.756;2023-04-29T06:04:25;18.37;;;13.07;;
2476;SDS011;1249;51.270;6.756;2023-04-29T06:06:54;17.93;;;13.33;;
2476;SDS011;1249;51.270;6.756;2023-04-29T06:09:21;16.07;;;12.03;;
2476;SDS011;1249;51.270;6.756;2023-04-29T06:11:49;13.90;;;11.43;;
2476;SDS011;1249;51.270;6.756;2023-04-29T06:14:15;15.27;;;11.00;;
2476;SDS011;1249;51.270;6.756;2023-04-29T06:16:41;16.73;;;13.00;;
2476;SDS011;1249;51.270;6.756;2023-04-29T06:19:06;15.40;;;12.23;;
2476;SDS011;1249;51.270;6.756;2023-04-29T06:21:32;15.60;;;12.37;;
2476;SDS011;1249;51.270;6.756;2023-04-29T06:23:57;16.70;;;11.80;;
2476;SDS011;1249;51.270;6.756;2023-04-29T06:26:23;16.03;;;11.90;;
2476;SDS011;1249;51.270;6.756;2023-04-29T06:28:49;14.43;;;11.80;;
2476;SDS011;1249;51.270;6.756;2023-04-29T06:31:15;17.87;;;11.60;;
2476;SDS011;1249;51.270;6.756;2023-04-29T06:33:40;15.60;;;11.30;;
2476;SDS011;1249;51.270;6.756;2023-04-29T06:36:06;13.40;;;10.27;;
2476;SDS011;1249;51.270;6.756;2023-04-29T06:38:32;17.43;;;11.20;;
2476;SDS011;1249;51.270;6.756;2023-04-29T06:40:58;15.60;;;11.20;;
2476;SDS011;1249;51.270;6.756;2023-04-29T06:43:27;15.03;;;11.03;;
2476;SDS011;1249;51.270;6.756;2023-04-29T06:45:53;13.47;;;10.97;;
2476;SDS011;1249;51.270;6.756;2023-04-29T06:48:19;18.73;;;11.60;;
2476;SDS011;1249;51.270;6.756;2023-04-29T06:50:51;13.67;;;11.00;;
2476;SDS011;1249;51.270;6.756;2023-04-29T06:53:20;18.73;;;11.30;;
2476;SDS011;1249;51.270;6.756;2023-04-29T06:55:47;15.87;;;12.20;;
2476;SDS011;1249;51.270;6.756;2023-04-29T06:58:13;15.23;;;11.63;;
2476;SDS011;1249;51.270;6.756;2023-04-29T07:00:46;15.17;;;11.37;;
2476;SDS011;1249;51.270;6.756;2023-04-29T07:03:13;15.60;;;11.00;;
2476;SDS011;1249;51.270;6.756;2023-04-29T07:05:40;13.80;;;11.10;;
2476;SDS011;1249;51.270;6.756;2023-04-29T07:08:07;18.57;;;11.20;;
2476;SDS011;1249;51.270;6.756;2023-04-29T07:10:34;12.90;;;10.60;;
2476;SDS011;1249;51.270;6.756;2023-04-29T07:13:00;14.47;;;11.03;;
2476;SDS011;1249;51.270;6.756;2023-04-29T07:15:26;13.90;;;10.33;;
2476;SDS011;1249;51.270;6.756;2023-04-29T07:17:52;14.97;;;10.30;;
2476;SDS011;1249;51.270;6.756;2023-04-29T07:20:18;18.47;;;11.80;;
2476;SDS011;1249;51.270;6.756;2023-04-29T07:22:44;14.57;;;11.50;;
2476;SDS011;1249;51.270;6.756;2023-04-29T07:25:09;15.33;;;10.20;;
2476;SDS011;1249;51.270;6.756;2023-04-29T07:27:35;13.53;;;11.07;;
2476;SDS011;1249;51.270;6.756;2023-04-29T07:30:01;14.07;;;10.97;;
2476;SDS011;1249;51.270;6.756;2023-04-29T07:32:28;14.10;;;11.17;;
2476;SDS011;1249;51.270;6.756;2023-04-29T07:34:55;12.53;;;10.77;;
2476;SDS011;1249;51.270;6.756;2023-04-29T07:37:21;14.13;;;11.90;;
2476;SDS011;1249;51.270;6.756;2023-04-29T07:39:47;14.50;;;11.57;;
2476;SDS011;1249;51.270;6.756;2023-04-29T07:42:12;13.87;;;10.90;;
2476;SDS011;1249;51.270;6.756;2023-04-29T07:44:38;12.40;;;9.63;;
2476;SDS011;1249;51.270;6.756;2023-04-29T07:47:04;12.30;;;10.50;;
2476;SDS011;1249;51.270;6.756;2023-04-29T07:49:29;12.40;;;10.50;;
2476;SDS011;1249;51.270;6.756;2023-04-29T07:51:55;18.47;;;11.40;;
2476;SDS011;1249;51.270;6.756;2023-04-29T07:54:20;13.83;;;10.97;;
2476;SDS011;1249;51.270;6.756;2023-04-29T07:56:46;14.00;;;10.80;;
2476;SDS011;1249;51.270;6.756;2023-04-29T07:59:12;12.50;;;10.90;;
2476;SDS011;1249;51.270;6.756;2023-04-29T08:01:39;13.13;;;10.03;;
2476;SDS011;1249;51.270;6.756;2023-04-29T08:04:05;12.43;;;9.50;;
2476;SDS011;1249;51.270;6.756;2023-04-29T08:06:31;10.90;;;9.37;;
2476;SDS011;1249;51.270;6.756;2023-04-29T08:08:57;17.80;;;10.37;;
2476;SDS011;1249;51.270;6.756;2023-04-29T08:11:23;13.23;;;10.00;;
2476;SDS011;1249;51.270;6.756;2023-04-29T08:13:50;10.80;;;9.70;;
2476;SDS011;1249;51.270;6.756;2023-04-29T08:16:15;12.57;;;10.67;;
2476;SDS011;1249;51.270;6.756;2023-04-29T08:18:41;11.53;;;9.40;;
2476;SDS011;1249;51.270;6.756;2023-04-29T08:21:07;15.97;;;10.50;;
2476;SDS011;1249;51.270;6.756;2023-04-29T08:23:35;11.97;;;9.40;;
2476;SDS011;1249;51.270;6.756;2023-04-29T08:26:01;12.67;;;9.53;;
2476;SDS011;1249;51.270;6.756;2023-04-29T08:28:27;13.07;;;9.97;;
2476;SDS011;1249;51.270;6.756;2023-04-29T08:30:53;12.70;;;10.07;;
2476;SDS011;1249;51.270;6.756;2023-04-29T08:33:19;15.63;;;10.60;;
2476;SDS011;1249;51.270;6.756;2023-04-29T08:35:46;12.43;;;10.53;;
2476;SDS011;1249;51.270;6.756;2023-04-29T08:38:11;14.50;;;10.83;;
2476;SDS011;1249;51.270;6.756;2023-04-29T08:40:41;13.60;;;11.00;;
2476;SDS011;1249;51.270;6.756;2023-04-29T08:43:09;17.10;;;11.03;;
2476;SDS011;1249;51.270;6.756;2023-04-29T08:45:36;16.57;;;13.47;;
2476;SDS011;1249;51.270;6.756;2023-04-29T08:48:04;15.00;;;11.97;;
2476;SDS011;1249;51.270;6.756;2023-04-29T08:50:32;17.00;;;12.33;;
2476;SDS011;1249;51.270;6.756;2023-04-29T08:53:04;15.13;;;12.60;;
2476;SDS011;1249;51.270;6.756;2023-04-29T08:55:43;17.23;;;12.33;;
2476;SDS011;1249;51.270;6.756;2023-04-29T08:58:10;16.60;;;13.80;;
2476;SDS011;1249;51.270;6.756;2023-04-29T09:00:37;16.43;;;12.13;;
2476;SDS011;1249;51.270;6.756;2023-04-29T09:03:16;20.20;;;13.03;;
2476;SDS011;1249;51.270;6.756;2023-04-29T09:05:51;16.67;;;13.37;;
2476;SDS011;1249;51.270;6.756;2023-04-29T09:08:19;20.63;;;13.83;;
2476;SDS011;1249;51.270;6.756;2023-04-29T09:10:47;19.63;;;13.90;;
2476;SDS011;1249;51.270;6.756;2023-04-29T09:13:25;17.87;;;12.90;;
2476;SDS011;1249;51.270;6.756;2023-04-29T09:15:51;16.53;;;13.30;;
2476;SDS011;1249;51.270;6.756;2023-04-29T09:23:44;17.30;;;12.47;;
2476;SDS011;1249;51.270;6.756;2023-04-29T09:26:11;24.00;;;17.80;;
2476;SDS011;1249;51.270;6.756;2023-04-29T09:28:37;21.40;;;14.90;;
2476;SDS011;1249;51.270;6.756;2023-04-29T09:31:05;19.40;;;13.70;;
2476;SDS011;1249;51.270;6.756;2023-04-29T09:33:47;19.37;;;14.37;;
2476;SDS011;1249;51.270;6.756;2023-04-29T09:39:02;23.57;;;14.70;;
2476;SDS011;1249;51.270;6.756;2023-04-29T09:41:36;21.70;;;16.37;;
2476;SDS011;1249;51.270;6.756;2023-04-29T09:44:03;20.13;;;14.57;;
2476;SDS011;1249;51.270;6.756;2023-04-29T09:46:31;23.77;;;16.93;;
2476;SDS011;1249;51.270;6.756;2023-04-29T09:49:00;26.37;;;17.30;;
2476;SDS011;1249;51.270;6.756;2023-04-29T09:51:29;20.37;;;14.57;;
2476;SDS011;1249;51.270;6.756;2023-04-29T09:53:58;23.43;;;16.03;;
2476;SDS011;1249;51.270;6.756;2023-04-29T09:56:25;19.80;;;14.53;;
2476;SDS011;1249;51.270;6.756;2023-04-29T09:58:54;19.50;;;15.40;;
2476;SDS011;1249;51.270;6.756;2023-04-29T10:01:21;18.37;;;15.77;;
2476;SDS011;1249;51.270;6.756;2023-04-29T10:03:47;18.90;;;14.47;;
2476;SDS011;1249;51.270;6.756;2023-04-29T10:06:14;18.93;;;15.67;;
2476;SDS011;1249;51.270;6.756;2023-04-29T10:08:42;30.07;;;19.40;;
2476;SDS011;1249;51.270;6.756;2023-04-29T10:11:10;20.90;;;16.70;;
2476;SDS011;1249;51.270;6.756;2023-04-29T10:13:36;23.97;;;16.83;;
2476;SDS011;1249;51.270;6.756;2023-04-29T10:19:25;27.67;;;19.67;;
2476;SDS011;1249;51.270;6.756;2023-04-29T10:22:13;26.23;;;18.40;;
2476;SDS011;1249;51.270;6.756;2023-04-29T10:24:46;25.50;;;19.53;;
2476;SDS011;1249;51.270;6.756;2023-04-29T10:27:13;33.17;;;19.77;;
2476;SDS011;1249;51.270;6.756;2023-04-29T10:29:39;31.30;;;22.33;;
2476;SDS011;1249;51.270;6.756;2023-04-29T10:32:07;35.07;;;27.10;;
2476;SDS011;1249;51.270;6.756;2023-04-29T10:34:36;37.30;;;26.40;;
2476;SDS011;1249;51.270;6.756;2023-04-29T10:37:05;29.50;;;24.63;;
2476;SDS011;1249;51.270;6.756;2023-04-29T10:39:38;38.67;;;26.70;;
2476;SDS011;1249;51.270;6.756;2023-04-29T10:42:15;29.57;;;22.83;;
2476;SDS011;1249;51.270;6.756;2023-04-29T10:50:33;25.30;;;21.53;;
2476;SDS011;1249;51.270;6.756;2023-04-29T10:53:19;30.00;;;22.23;;
2476;SDS011;1249;51.270;6.756;2023-04-29T10:55:57;33.80;;;22.50;;
2476;SDS011;1249;51.270;6.756;2023-04-29T11:01:05;23.40;;;19.80;;
2476;SDS011;1249;51.270;6.756;2023-04-29T11:06:15;24.63;;;20.10;;
2476;SDS011;1249;51.270;6.756;2023-04-29T11:08:40;23.03;;;17.97;;
2476;SDS011;1249;51.270;6.756;2023-04-29T11:11:07;26.90;;;18.93;;
2476;SDS011;1249;51.270;6.756;2023-04-29T11:13:39;29.60;;;19.10;;
2476;SDS011;1249;51.270;6.756;2023-04-29T11:16:06;23.17;;;19.37;;
2476;SDS011;1249;51.270;6.756;2023-04-29T11:18:33;26.10;;;18.37;;
2476;SDS011;1249;51.270;6.756;2023-04-29T11:21:19;25.53;;;17.20;;
2476;SDS011;1249;51.270;6.756;2023-04-29T11:23:46;27.73;;;19.40;;
2476;SDS011;1249;51.270;6.756;2023-04-29T11:26:12;28.77;;;20.10;;
2476;SDS011;1249;51.270;6.756;2023-04-29T11:28:37;23.60;;;20.00;;
2476;SDS011;1249;51.270;6.756;2023-04-29T11:31:06;24.87;;;19.47;;
2476;SDS011;1249;51.270;6.756;2023-04-29T11:33:31;28.27;;;21.03;;
2476;SDS011;1249;51.270;6.756;2023-04-29T11:35:58;25.83;;;20.40;;
2476;SDS011;1249;51.270;6.756;2023-04-29T11:38:27;34.87;;;21.57;;
2476;SDS011;1249;51.270;6.756;2023-04-29T11:40:54;26.77;;;21.20;;
2476;SDS011;1249;51.270;6.756;2023-04-29T11:43:21;29.23;;;21.60;;
2476;SDS011;1249;51.270;6.756;2023-04-29T11:45:48;25.50;;;19.87;;
2476;SDS011;1249;51.270;6.756;2023-04-29T11:48:21;23.53;;;20.03;;
2476;SDS011;1249;51.270;6.756;2023-04-29T11:50:49;30.27;;;21.27;;
2476;SDS011;1249;51.270;6.756;2023-04-29T11:53:21;26.13;;;20.70;;
2476;SDS011;1249;51.270;6.756;2023-04-29T11:55:49;26.70;;;21.63;;
2476;SDS011;1249;51.270;6.756;2023-04-29T11:58:16;23.70;;;18.70;;
2476;SDS011;1249;51.270;6.756;2023-04-29T12:00:44;21.20;;;19.00;;
2476;SDS011;1249;51.270;6.756;2023-04-29T12:03:15;24.77;;;19.07;;
2476;SDS011;1249;51.270;6.756;2023-04-29T12:05:52;24.03;;;18.87;;
2476;SDS011;1249;51.270;6.756;2023-04-29T12:08:25;21.70;;;19.13;;
2476;SDS011;1249;51.270;6.756;2023-04-29T12:10:56;19.03;;;17.13;;
2476;SDS011;1249;51.270;6.756;2023-04-29T12:13:23;23.27;;;17.77;;
2476;SDS011;1249;51.270;6.756;2023-04-29T12:15:51;21.30;;;17.87;;
2476;SDS011;1249;51.270;6.756;2023-04-29T12:18:17;30.03;;;22.97;;
2476;SDS011;1249;51.270;6.756;2023-04-29T12:20:45;38.67;;;26.17;;
2476;SDS011;1249;51.270;6.756;2023-04-29T12:23:15;24.93;;;19.47;;
2476;SDS011;1249;51.270;6.756;2023-04-29T12:25:52;19.80;;;15.23;;
2476;SDS011;1249;51.270;6.756;2023-04-29T12:28:23;25.23;;;18.40;;
2476;SDS011;1249;51.270;6.756;2023-04-29T12:30:49;27.93;;;20.00;;
2476;SDS011;1249;51.270;6.756;2023-04-29T12:33:18;18.53;;;16.57;;
2476;SDS011;1249;51.270;6.756;2023-04-29T12:35:52;31.13;;;21.70;;
2476;SDS011;1249;51.270;6.756;2023-04-29T12:38:21;24.53;;;20.37;;
2476;SDS011;1249;51.270;6.756;2023-04-29T12:40:51;24.30;;;17.83;;
2476;SDS011;1249;51.270;6.756;2023-04-29T12:43:25;23.07;;;18.87;;
2476;SDS011;1249;51.270;6.756;2023-04-29T12:46:02;20.47;;;17.30;;
2476;SDS011;1249;51.270;6.756;2023-04-29T12:48:29;19.63;;;17.53;;
2476;SDS011;1249;51.270;6.756;2023-04-29T12:50:59;19.77;;;17.70;;
2476;SDS011;1249;51.270;6.756;2023-04-29T12:53:26;30.47;;;25.07;;
2476;SDS011;1249;51.270;6.756;2023-04-29T12:55:53;22.70;;;18.20;;
2476;SDS011;1249;51.270;6.756;2023-04-29T12:58:19;22.47;;;17.20;;
2476;SDS011;1249;51.270;6.756;2023-04-29T13:00:45;19.27;;;17.17;;
2476;SDS011;1249;51.270;6.756;2023-04-29T13:03:10;22.33;;;17.30;;
2476;SDS011;1249;51.270;6.756;2023-04-29T13:05:36;18.10;;;16.23;;
2476;SDS011;1249;51.270;6.756;2023-04-29T13:08:01;18.80;;;16.83;;
2476;SDS011;1249;51.270;6.756;2023-04-29T13:10:30;19.07;;;16.97;;
2476;SDS011;1249;51.270;6.756;2023-04-29T13:12:55;18.93;;;17.23;;
2476;SDS011;1249;51.270;6.756;2023-04-29T13:15:21;21.20;;;17.00;;
2476;SDS011;1249;51.270;6.756;2023-04-29T13:17:47;21.70;;;19.00;;
2476;SDS011;1249;51.270;6.756;2023-04-29T13:20:12;18.07;;;16.27;;
2476;SDS011;1249;51.270;6.756;2023-04-29T13:22:39;18.93;;;16.93;;
2476;SDS011;1249;51.270;6.756;2023-04-29T13:25:04;21.53;;;17.97;;
2476;SDS011;1249;51.270;6.756;2023-04-29T13:27:31;21.87;;;19.57;;
2476;SDS011;1249;51.270;6.756;2023-04-29T13:29:56;21.20;;;19.10;;
2476;SDS011;1249;51.270;6.756;2023-04-29T13:32:22;20.70;;;18.60;;
2476;SDS011;1249;51.270;6.756;2023-04-29T13:34:51;29.73;;;18.67;;
2476;SDS011;1249;51.270;6.756;2023-04-29T13:37:17;21.40;;;19.00;;
2476;SDS011;1249;51.270;6.756;2023-04-29T13:39:43;22.83;;;20.13;;
2476;SDS011;1249;51.270;6.756;2023-04-29T13:42:09;20.90;;;18.70;;
2476;SDS011;1249;51.270;6.756;2023-04-29T13:44:35;23.50;;;20.50;;
2476;SDS011;1249;51.270;6.756;2023-04-29T13:47:01;24.70;;;20.57;;
2476;SDS011;1249;51.270;6.756;2023-04-29T13:49:28;22.10;;;19.40;;
2476;SDS011;1249;51.270;6.756;2023-04-29T13:51:53;20.27;;;16.80;;
2476;SDS011;1249;51.270;6.756;2023-04-29T13:54:19;21.20;;;18.33;;
2476;SDS011;1249;51.270;6.756;2023-04-29T13:56:45;21.47;;;18.30;;
2476;SDS011;1249;51.270;6.756;2023-04-29T13:59:11;21.10;;;17.20;;
2476;SDS011;1249;51.270;6.756;2023-04-29T14:01:37;18.27;;;15.17;;
2476;SDS011;1249;51.270;6.756;2023-04-29T14:04:03;20.53;;;16.67;;
2476;SDS011;1249;51.270;6.756;2023-04-29T14:06:28;16.00;;;14.30;;
2476;SDS011;1249;51.270;6.756;2023-04-29T14:08:56;16.90;;;13.77;;
2476;SDS011;1249;51.270;6.756;2023-04-29T14:11:22;15.10;;;13.67;;
2476;SDS011;1249;51.270;6.756;2023-04-29T14:13:47;14.33;;;12.80;;
2476;SDS011;1249;51.270;6.756;2023-04-29T14:16:13;15.60;;;12.00;;
2476;SDS011;1249;51.270;6.756;2023-04-29T14:18:38;13.70;;;12.23;;
2476;SDS011;1249;51.270;6.756;2023-04-29T14:21:04;12.00;;;10.77;;
2476;SDS011;1249;51.270;6.756;2023-04-29T14:23:30;11.93;;;10.60;;
2476;SDS011;1249;51.270;6.756;2023-04-29T14:25:55;19.70;;;12.63;;
2476;SDS011;1249;51.270;6.756;2023-04-29T14:28:21;13.33;;;11.13;;
2476;SDS011;1249;51.270;6.756;2023-04-29T14:30:47;12.30;;;11.00;;
2476;SDS011;1249;51.270;6.756;2023-04-29T14:33:12;11.57;;;10.40;;
2476;SDS011;1249;51.270;6.756;2023-04-29T14:35:38;11.73;;;9.73;;
2476;SDS011;1249;51.270;6.756;2023-04-29T14:38:03;13.40;;;9.60;;
2476;SDS011;1249;51.270;6.756;2023-04-29T14:40:29;13.30;;;9.97;;
2476;SDS011;1249;51.270;6.756;2023-04-29T14:42:54;14.23;;;10.30;;
2476;SDS011;1249;51.270;6.756;2023-04-29T14:45:20;10.37;;;9.33;;
2476;SDS011;1249;51.270;6.756;2023-04-29T14:47:45;10.10;;;9.20;;
2476;SDS011;1249;51.270;6.756;2023-04-29T14:50:11;11.17;;;9.73;;
2476;SDS011;1249;51.270;6.756;2023-04-29T14:52:36;11.00;;;9.90;;
2476;SDS011;1249;51.270;6.756;2023-04-29T14:55:02;11.13;;;10.00;;
2476;SDS011;1249;51.270;6.756;2023-04-29T14:57:30;12.00;;;10.80;;
2476;SDS011;1249;51.270;6.756;2023-04-29T14:59:56;10.50;;;9.03;;
2476;SDS011;1249;51.270;6.756;2023-04-29T15:02:21;11.93;;;9.87;;
2476;SDS011;1249;51.270;6.756;2023-04-29T15:04:47;15.70;;;10.90;;
2476;SDS011;1249;51.270;6.756;2023-04-29T15:07:13;11.03;;;9.50;;
2476;SDS011;1249;51.270;6.756;2023-04-29T15:09:42;11.30;;;10.20;;
2476;SDS011;1249;51.270;6.756;2023-04-29T15:12:08;10.80;;;9.70;;
2476;SDS011;1249;51.270;6.756;2023-04-29T15:14:34;14.10;;;10.17;;
2476;SDS011;1249;51.270;6.756;2023-04-29T15:16:59;12.67;;;10.77;;
2476;SDS011;1249;51.270;6.756;2023-04-29T15:19:25;11.57;;;9.37;;